Hobson, Texas
Current Conditions -  °F | °C
As of 9:35 AM on Friday 28 Nov 2014 (Local Time) from KPEZ Reporting Station
Broken Clouds Broken Clouds  
Wind Chill: 54°   Ceiling: 300
Heat Index: 54°   Visibility: 7mi
Dew Point: 51°   Wind: 0mph
Humidity: 88%   Direction: NA
Pressure: 30.33"   Gusts: NA
Location:  28.96°N, 97.98°W
Report Text: KPEZ 281535Z AUTO 00000KT 7SM BKN003 12/11 A3033 RMK AO2 T01240105
Loading
Personal Weather Stations






























Interactive Weather Map New forecast layout! Learn more

10-Day Weather Forecast

Advertisements
Track Severe Weather on mobile